Главная страница
METAR-TAF:

METAR-TAF

Аэропорты :

Белгород, Россия

широта: 50-38-36N, долгота: 036-35-24E, высота над уровнем моря: 224 м

Текущие метеонаблюдения

Эта сводка был подготовлена 12 минут назад, в 07:30 UTC
Ветер 10 Узел от северный
Температура 6°C
Влажность 56%
Давление 1013 hPa
Видимость 10 км и более
Рассеянная облачность на высоте 3800 фута

METAR: UUOB 230730Z 36005MPS 9999 BKN038 06/M02 Q1013 R11/090060 NOSIG

Время: 10:42 (07:42 UTC)

Прогноз

Эта сводка был подготовлена 2 часа и 42 минут назад, в 05:00 UTC
Прогноз действительный с 23-го 06 UTC до 23-го 15 UTC
Ветер 10 Узел от северный с порывами до 19 Узел
Видимость 10 км и более
Рассеянная облачность на высоте 3000 фута

TAF: UUOB 230500Z 2306/2315 01005G10MPS 9999 BKN030

Метеонаблюдения и прогнозы для более 4000 аэропортов (сводки METAR и TAF).

Имеющиеся станции представлены на карте желтыми и красными точками.

Чтобы увидеть название станции, наведите на нее мышь.

Затем щелкните, чтобы увидеть метеонаблюдения и метеопрогнозы.

Управление картой: чтобы увеличить масштаб, щелкните зеленые кнопки с черным крестиком; чтобы уменьшить масштаб, щелкните зеленую кнопку с тире; для просмотра соседних карт щелкайте зеленые стрелки.


METAR-TAF: